createdAt,value
2022-12-14T00:00:31.597Z,3.5
2022-12-14T00:06:51.660Z,3.5
2022-12-14T00:13:14.638Z,4.9
2022-12-14T00:19:34.520Z,4.9
2022-12-14T00:25:57.773Z,2.4
2022-12-14T00:32:17.561Z,2.4
2022-12-14T00:38:40.720Z,3.4
2022-12-14T00:45:00.480Z,3.4
2022-12-14T00:51:23.548Z,7.8
2022-12-14T00:57:43.622Z,7.8
2022-12-14T01:04:06.583Z,3.6
2022-12-14T01:10:26.607Z,3.6
2022-12-14T01:16:49.642Z,4.6
2022-12-14T01:23:09.504Z,4.6
2022-12-14T01:29:32.664Z,3.4
2022-12-14T01:35:52.548Z,3.4
2022-12-14T01:42:15.538Z,3.2
2022-12-14T01:48:35.534Z,3.2
2022-12-14T01:54:58.915Z,3.5
2022-12-14T02:01:18.666Z,3.5
2022-12-14T02:07:41.653Z,4.8
2022-12-14T02:14:01.486Z,4.8
2022-12-14T02:20:24.701Z,6.8
2022-12-14T02:26:44.502Z,6.8
2022-12-14T02:33:07.561Z,2.9
2022-12-14T02:39:27.488Z,2.9
2022-12-14T02:45:50.581Z,3.1
2022-12-14T02:52:10.507Z,3.1
2022-12-14T02:58:33.521Z,3.1
2022-12-14T03:04:53.485Z,3.1
2022-12-14T03:11:18.470Z,4.4
2022-12-14T03:17:38.499Z,4.4
2022-12-14T03:24:01.505Z,4.1
2022-12-14T03:30:44.218Z,4.1
2022-12-14T03:36:44.537Z,2.7
2022-12-14T03:43:04.465Z,2.7
2022-12-14T03:49:27.521Z,3
2022-12-14T03:55:48.891Z,3
2022-12-14T04:02:10.713Z,1.5
2022-12-14T04:18:17.306Z,3.2
2022-12-14T04:24:37.538Z,3.2
2022-12-14T04:31:00.541Z,4.1
2022-12-14T04:37:20.545Z,4.1
2022-12-14T04:43:43.621Z,4.1
2022-12-14T04:50:03.508Z,4.1
2022-12-14T04:56:26.760Z,1.3
2022-12-14T05:02:46.736Z,1.3
2022-12-14T05:09:09.498Z,2.6
2022-12-14T05:15:29.569Z,2.6
2022-12-14T05:21:52.611Z,3
2022-12-14T05:28:12.489Z,3
2022-12-14T05:34:35.525Z,3.7
2022-12-14T05:40:55.468Z,3.7
2022-12-14T05:47:18.531Z,3.4
2022-12-14T05:53:38.540Z,3.4
2022-12-14T06:00:01.517Z,0.9
2022-12-14T06:06:21.590Z,0.9
2022-12-14T06:12:44.521Z,1.8
2022-12-14T06:19:04.669Z,1.8
2022-12-14T06:25:27.501Z,3.6
2022-12-14T06:31:49.262Z,3.6
2022-12-14T06:38:10.510Z,2
2022-12-14T06:44:30.477Z,2
2022-12-14T06:50:53.649Z,2.3
2022-12-14T06:57:13.601Z,2.3
2022-12-14T07:03:36.585Z,1.9
2022-12-14T07:09:56.529Z,1.9
2022-12-14T07:16:19.611Z,3.3
2022-12-14T07:22:39.562Z,3.3
2022-12-14T07:29:02.637Z,6.9
2022-12-14T07:35:22.662Z,6.9
2022-12-14T07:41:45.551Z,5.7
2022-12-14T07:48:05.548Z,5.7
2022-12-14T07:54:28.647Z,6
2022-12-14T08:00:48.649Z,6
2022-12-14T08:07:11.926Z,5
2022-12-14T08:13:31.973Z,5
2022-12-14T08:19:54.544Z,6.6
2022-12-14T08:26:14.630Z,6.6
2022-12-14T08:32:37.558Z,6.4
2022-12-14T08:38:57.724Z,6.4
2022-12-14T08:45:20.601Z,3.8
2022-12-14T08:51:40.948Z,3.8
2022-12-14T09:14:28.465Z,9.6
2022-12-14T09:20:48.549Z,9.6
2022-12-14T09:27:11.719Z,8.8
2022-12-14T09:33:32.330Z,8.8
2022-12-14T09:39:54.785Z,4.7
2022-12-14T09:46:14.676Z,4.7
2022-12-14T09:52:37.727Z,9.1
2022-12-14T09:58:57.595Z,9.1
2022-12-14T10:05:20.536Z,4.8
2022-12-14T10:11:40.539Z,4.8
2022-12-14T10:18:03.551Z,5.2
2022-12-14T10:24:23.512Z,5.2
2022-12-14T10:30:46.624Z,6.5
2022-12-14T10:37:06.625Z,6.5
2022-12-14T10:43:29.508Z,5.2
2022-12-14T10:49:49.756Z,5.2
2022-12-14T10:56:12.790Z,6.8
2022-12-14T11:02:33.112Z,6.8
2022-12-14T11:08:55.626Z,5
2022-12-14T11:15:15.774Z,5
2022-12-14T11:21:38.528Z,5
2022-12-14T11:27:58.522Z,5
2022-12-14T11:34:22.248Z,5.4
2022-12-14T11:40:41.671Z,5.4
2022-12-14T11:47:04.667Z,7.6
2022-12-14T11:53:24.606Z,7.6
2022-12-14T11:59:47.533Z,4.8
2022-12-14T12:06:07.798Z,4.8
2022-12-14T12:12:30.517Z,3.1
2022-12-14T12:18:50.644Z,3.1
2022-12-14T12:25:33.851Z,5.2
2022-12-14T12:31:33.798Z,5.2
2022-12-14T12:37:56.605Z,4.9
2022-12-14T12:44:16.692Z,4.9
2022-12-14T12:50:39.549Z,4.3
2022-12-14T12:56:59.644Z,4.3
2022-12-14T13:03:22.733Z,5.4
2022-12-14T13:09:42.512Z,5.4
2022-12-14T13:16:05.538Z,6.2
2022-12-14T13:22:25.691Z,6.2
2022-12-14T13:28:48.664Z,5.4
2022-12-14T13:35:08.552Z,5.4
2022-12-14T13:41:31.514Z,3.3
2022-12-14T13:47:51.683Z,3.3
2022-12-14T13:54:14.521Z,4.5
2022-12-14T14:00:34.661Z,4.5
2022-12-14T14:06:57.513Z,2.1
2022-12-14T14:13:17.600Z,2.1
2022-12-14T14:37:29.475Z,10.2
2022-12-14T14:43:52.577Z,10.2
2022-12-14T14:50:12.529Z,10.2
2022-12-14T14:56:35.529Z,3.8
2022-12-14T15:02:55.609Z,3.8
2022-12-14T15:09:18.541Z,5.3
2022-12-14T15:15:38.752Z,5.3
2022-12-14T15:22:01.582Z,3.6
2022-12-14T15:28:21.508Z,3.6
2022-12-14T15:34:45.727Z,7.2
2022-12-14T15:41:05.494Z,7.2
2022-12-14T15:47:28.554Z,3.2
2022-12-14T15:53:50.095Z,3.2
2022-12-14T16:00:11.512Z,4
2022-12-14T16:06:31.613Z,4
2022-12-14T16:12:54.893Z,4.2
2022-12-14T16:19:26.984Z,4.2
2022-12-14T16:25:37.638Z,3
2022-12-14T16:31:57.761Z,3
2022-12-14T16:38:20.497Z,6.7
2022-12-14T16:44:40.616Z,6.7
2022-12-14T16:51:12.850Z,4.6
2022-12-14T16:57:23.616Z,4.6
2022-12-14T17:03:46.931Z,4.7
2022-12-14T17:10:06.657Z,4.7
2022-12-14T17:16:29.544Z,3.5
2022-12-14T17:22:49.860Z,3.5
2022-12-14T17:29:12.730Z,5.3
2022-12-14T17:35:32.671Z,5.3
2022-12-14T17:41:55.583Z,4.8
2022-12-14T17:48:15.710Z,4.8
2022-12-14T17:54:38.509Z,6.8
2022-12-14T18:00:58.816Z,6.8
2022-12-14T18:07:21.536Z,6
2022-12-14T18:13:41.498Z,6
2022-12-14T18:20:04.623Z,4.9
2022-12-14T18:26:24.571Z,4.9
2022-12-14T18:32:47.584Z,6
2022-12-14T18:39:07.689Z,6
2022-12-14T18:45:30.951Z,4.6
2022-12-14T18:51:50.580Z,4.6
2022-12-14T18:58:13.593Z,5.1
2022-12-14T19:04:33.518Z,5.1
2022-12-14T19:10:56.710Z,6
2022-12-14T19:34:20.035Z,20.4
2022-12-14T19:40:39.470Z,20.4
2022-12-14T19:47:02.587Z,20.4
2022-12-14T19:53:23.956Z,20.4
2022-12-14T19:59:45.481Z,6
2022-12-14T20:06:05.511Z,6
2022-12-14T20:12:28.531Z,8
2022-12-14T20:18:48.564Z,8
2022-12-14T20:25:11.483Z,6.6
2022-12-14T20:31:31.673Z,6.6
2022-12-14T20:37:54.733Z,8.2
2022-12-14T20:44:14.508Z,8.2
2022-12-14T20:50:37.604Z,7.4
2022-12-14T20:56:57.565Z,7.4
2022-12-14T21:03:20.629Z,9
2022-12-14T21:09:40.496Z,9
2022-12-14T21:16:03.548Z,6.6
2022-12-14T21:22:23.539Z,6.6
2022-12-14T21:28:46.680Z,9.1
2022-12-14T21:35:06.624Z,9.1
2022-12-14T21:41:29.497Z,8.4
2022-12-14T21:47:49.535Z,8.4
2022-12-14T21:54:12.549Z,7.1
2022-12-14T22:00:32.465Z,7.1
2022-12-14T22:06:55.596Z,9.6
2022-12-14T22:13:15.470Z,9.6
2022-12-14T22:19:38.516Z,9.5
2022-12-14T22:25:58.605Z,9.5
2022-12-14T22:32:21.620Z,7.4
2022-12-14T22:38:41.534Z,7.4
2022-12-14T22:45:04.586Z,8.9
2022-12-14T22:51:24.480Z,8.9
2022-12-14T22:57:47.549Z,6.2
2022-12-14T23:20:53.686Z,21.8
2022-12-14T23:27:13.529Z,21.8
2022-12-14T23:33:36.542Z,21.8
2022-12-14T23:39:56.804Z,21.8
2022-12-14T23:46:19.693Z,9.6
2022-12-14T23:52:39.747Z,9.6
2022-12-14T23:59:09.210Z,4.6
